createdAt,value
2022-09-23T00:01:25.732Z,3.92
2022-09-23T00:03:54.056Z,2.80
2022-09-23T00:06:23.754Z,3.20
2022-09-23T00:14:25.103Z,4.07
2022-09-23T00:16:54.552Z,6.70
2022-09-23T00:19:22.795Z,4.68
2022-09-23T00:21:50.799Z,3.38
2022-09-23T00:24:19.726Z,5.57
2022-09-23T00:26:47.740Z,4.55
2022-09-23T00:29:16.003Z,4.40
2022-09-23T00:31:44.126Z,4.25
2022-09-23T00:34:13.462Z,4.30
2022-09-23T00:36:41.376Z,3.97
2022-09-23T00:39:09.720Z,5.03
2022-09-23T00:41:37.999Z,4.07
2022-09-23T00:44:39.168Z,4.40
2022-09-23T00:47:13.976Z,3.95
2022-09-23T00:49:45.362Z,4.03
2022-09-23T00:52:17.505Z,5.13
2022-09-23T00:54:47.383Z,6.10
2022-09-23T00:57:17.147Z,6.85
2022-09-23T00:59:45.662Z,5.45
2022-09-23T01:02:15.658Z,6.25
2022-09-23T01:07:13.893Z,6.17
2022-09-23T01:09:42.268Z,3.85
2022-09-23T01:12:25.371Z,4.43
2022-09-23T01:14:57.707Z,6.03
2022-09-23T01:17:32.778Z,5.85
2022-09-23T01:20:29.467Z,5.43
2022-09-23T01:23:12.148Z,4.88
2022-09-23T01:25:57.834Z,5.38
2022-09-23T01:28:37.740Z,5.18
2022-09-23T01:31:13.134Z,4.63
2022-09-23T01:33:51.746Z,4.75
2022-09-23T01:36:24.988Z,6.05
2022-09-23T01:38:59.620Z,5.05
2022-09-23T01:41:43.967Z,4.47
2022-09-23T01:44:19.412Z,5.15
2022-09-23T01:46:53.295Z,6.25
2022-09-23T01:49:26.832Z,5.03
2022-09-23T01:52:00.488Z,4.40
2022-09-23T01:54:33.364Z,6.80
2022-09-23T01:57:06.167Z,5.30
2022-09-23T01:59:37.840Z,6.30
2022-09-23T02:02:15.263Z,5.22
2022-09-23T02:04:49.221Z,6.03
2022-09-23T02:07:23.176Z,5.43
2022-09-23T02:09:56.170Z,5.90
2022-09-23T02:12:27.217Z,7.18
2022-09-23T02:14:59.626Z,5.75
2022-09-23T02:17:36.516Z,7.18
2022-09-23T02:20:06.752Z,6.32
2022-09-23T02:22:41.759Z,5.60
2022-09-23T02:25:12.519Z,5.75
2022-09-23T02:27:45.880Z,5.97
2022-09-23T02:30:16.629Z,6.03
2022-09-23T02:32:53.812Z,6.20
2022-09-23T02:35:29.271Z,5.10
2022-09-23T02:38:10.967Z,6.93
2022-09-23T02:40:47.597Z,7.18
2022-09-23T02:43:21.235Z,4.95
2022-09-23T02:45:49.940Z,4.75
2022-09-23T02:48:22.544Z,8.05
2022-09-23T02:50:50.869Z,6.20
2022-09-23T02:53:18.818Z,8.23
2022-09-23T02:55:46.792Z,5.50
2022-09-23T02:58:15.116Z,7.22
2022-09-23T03:00:55.674Z,5.28
2022-09-23T03:03:33.538Z,6.25
2022-09-23T03:06:10.079Z,6.32
2022-09-23T03:08:48.353Z,7.03
2022-09-23T03:11:17.590Z,6.45
2022-09-23T03:13:58.566Z,6.40
2022-09-23T03:16:32.857Z,5.63
2022-09-23T03:19:17.490Z,8.27
2022-09-23T03:21:52.775Z,5.63
2022-09-23T03:24:23.332Z,5.22
2022-09-23T03:26:53.915Z,7.07
2022-09-23T03:29:23.931Z,8.20
2022-09-23T03:31:52.041Z,7.47
2022-09-23T03:34:26.667Z,7.82
2022-09-23T03:37:00.680Z,6.75
2022-09-23T03:39:36.963Z,7.30
2022-09-23T03:42:16.988Z,7.22
2022-09-23T03:44:47.043Z,5.85
2022-09-23T03:47:17.286Z,7.40
2022-09-23T03:49:50.977Z,10.38
2022-09-23T03:52:20.835Z,8.98
2022-09-23T03:54:48.882Z,8.48
2022-09-23T03:57:16.848Z,8.02
2022-09-23T03:59:45.188Z,7.63
2022-09-23T04:02:13.175Z,8.82
2022-09-23T04:04:41.399Z,8.02
2022-09-23T04:07:11.115Z,8.40
2022-09-23T04:09:39.582Z,7.10
2022-09-23T04:12:08.622Z,8.00
2022-09-23T04:14:36.511Z,8.98
2022-09-23T04:17:04.658Z,7.13
2022-09-23T04:19:32.585Z,8.93
2022-09-23T04:22:00.735Z,7.70
2022-09-23T04:24:30.029Z,6.53
2022-09-23T04:26:58.571Z,8.73
2022-09-23T04:29:27.160Z,8.88
2022-09-23T04:31:55.783Z,8.38
2022-09-23T04:34:24.101Z,7.72
2022-09-23T04:36:52.038Z,9.10
2022-09-23T04:39:20.066Z,9.32
2022-09-23T04:41:49.388Z,8.95
2022-09-23T04:44:17.592Z,7.25
2022-09-23T04:46:47.303Z,7.40
2022-09-23T04:49:15.615Z,9.35
2022-09-23T04:51:45.059Z,8.23
2022-09-23T04:54:15.020Z,9.80
2022-09-23T04:56:43.628Z,6.45
2022-09-23T04:59:14.516Z,7.30
2022-09-23T05:01:43.093Z,7.95
2022-09-23T05:04:13.373Z,6.72
2022-09-23T05:06:44.098Z,7.95
2022-09-23T05:09:16.773Z,8.02
2022-09-23T05:11:45.217Z,7.57
2022-09-23T05:14:14.719Z,8.30
2022-09-23T05:16:42.943Z,9.60
2022-09-23T05:19:11.767Z,8.05
2022-09-23T05:21:40.214Z,7.85
2022-09-23T05:24:08.787Z,8.68
2022-09-23T05:26:37.573Z,9.48
2022-09-23T05:29:05.902Z,7.97
2022-09-23T05:31:36.742Z,8.15
2022-09-23T05:34:06.201Z,6.90
2022-09-23T05:36:38.740Z,6.77
2022-09-23T05:39:08.240Z,7.88
2022-09-23T05:41:36.793Z,7.82
2022-09-23T05:44:05.302Z,8.60
2022-09-23T05:46:33.627Z,8.02
2022-09-23T05:49:04.340Z,9.85
2022-09-23T05:51:34.371Z,8.00
2022-09-23T05:54:04.111Z,8.27
2022-09-23T05:56:33.491Z,8.90
2022-09-23T05:59:02.644Z,8.77
2022-09-23T06:01:34.176Z,7.40
2022-09-23T06:04:06.197Z,9.40
2022-09-23T06:06:37.203Z,7.38
2022-09-23T06:09:06.183Z,8.13
2022-09-23T06:11:35.366Z,9.07
2022-09-23T06:14:03.943Z,7.73
2022-09-23T06:16:34.173Z,7.47
2022-09-23T06:19:06.499Z,9.80
2022-09-23T06:21:36.219Z,7.00
2022-09-23T06:24:04.621Z,8.40
2022-09-23T06:26:35.225Z,8.13
2022-09-23T06:29:04.598Z,9.80
2022-09-23T06:31:33.062Z,10.60
2022-09-23T06:34:12.203Z,8.70
2022-09-23T06:39:14.591Z,7.00
2022-09-23T06:41:42.681Z,8.38
2022-09-23T06:44:13.917Z,8.73
2022-09-23T06:46:41.981Z,8.27
2022-09-23T06:49:10.636Z,7.63
2022-09-23T06:51:39.212Z,8.75
2022-09-23T06:54:08.909Z,8.18
2022-09-23T06:56:39.405Z,7.43
2022-09-23T06:59:08.981Z,8.52
2022-09-23T07:01:36.923Z,7.10
2022-09-23T07:04:07.304Z,8.40
2022-09-23T07:06:35.570Z,6.18
2022-09-23T07:09:03.490Z,7.03
2022-09-23T07:11:32.871Z,6.22
2022-09-23T07:14:00.724Z,7.40
2022-09-23T07:16:28.725Z,6.90
2022-09-23T07:18:56.706Z,8.50
2022-09-23T07:21:24.720Z,10.75
2022-09-23T07:23:52.821Z,7.38
2022-09-23T07:26:21.467Z,6.05
2022-09-23T07:28:55.040Z,6.95
2022-09-23T07:31:36.447Z,6.97
2022-09-23T07:34:06.715Z,6.47
2022-09-23T07:36:37.219Z,8.25
2022-09-23T07:39:05.754Z,7.05
2022-09-23T07:41:34.993Z,7.38
2022-09-23T07:44:06.050Z,5.40
2022-09-23T07:46:36.460Z,7.53
2022-09-23T07:49:05.615Z,6.20
2022-09-23T07:51:36.602Z,6.37
2022-09-23T07:54:07.916Z,7.75
2022-09-23T07:56:38.371Z,6.22
2022-09-23T07:59:09.356Z,6.70
2022-09-23T08:01:39.328Z,5.47
2022-09-23T08:06:36.956Z,5.30
2022-09-23T08:09:05.096Z,5.68
2022-09-23T08:11:33.092Z,6.50
2022-09-23T08:14:01.038Z,6.05
2022-09-23T08:16:30.367Z,6.88
2022-09-23T08:18:58.484Z,4.75
2022-09-23T08:21:26.446Z,4.03
2022-09-23T08:23:54.399Z,6.28
2022-09-23T08:26:22.680Z,3.50
2022-09-23T08:28:54.518Z,4.40
2022-09-23T08:31:23.510Z,2.00
2022-09-23T08:33:56.888Z,3.60
2022-09-23T08:36:26.965Z,2.40
2022-09-23T08:43:01.122Z,2.65
2022-09-23T08:45:29.596Z,2.05
2022-09-23T08:48:02.093Z,3.72
2022-09-23T08:50:37.685Z,2.08
2022-09-23T08:53:10.297Z,2.80
2022-09-23T08:55:43.073Z,2.80
2022-09-23T08:58:29.351Z,2.75
2022-09-23T09:01:07.546Z,4.30
2022-09-23T09:03:37.802Z,2.72
2022-09-23T09:06:09.998Z,8.93
2022-09-23T09:08:39.456Z,4.75
2022-09-23T09:11:08.206Z,5.30
2022-09-23T09:13:43.811Z,2.67
2022-09-23T09:16:59.107Z,2.97
2022-09-23T09:19:53.012Z,3.90
2022-09-23T09:22:29.922Z,4.68
2022-09-23T09:25:04.168Z,3.83
2022-09-23T09:27:32.140Z,3.53
2022-09-23T09:30:01.700Z,3.05
2022-09-23T09:32:43.929Z,5.63
2022-09-23T09:35:24.148Z,2.90
2022-09-23T09:37:53.701Z,3.70
2022-09-23T09:40:21.642Z,3.75
2022-09-23T09:42:51.192Z,2.72
2022-09-23T09:45:30.073Z,4.68
2022-09-23T09:48:07.501Z,2.37
2022-09-23T09:50:47.263Z,3.40
2022-09-23T09:53:25.585Z,3.33
2022-09-23T09:56:04.867Z,3.10
2022-09-23T09:58:41.690Z,3.67
2022-09-23T10:01:09.860Z,4.85
2022-09-23T10:03:44.143Z,4.43
2022-09-23T10:06:18.845Z,4.70
2022-09-23T10:09:05.373Z,2.50
2022-09-23T10:11:33.947Z,4.72
2022-09-23T10:14:06.012Z,3.35
2022-09-23T10:16:35.720Z,2.28
2022-09-23T10:19:05.243Z,2.60
2022-09-23T10:21:37.076Z,2.15
2022-09-23T10:24:08.730Z,4.40
2022-09-23T10:26:43.970Z,4.30
2022-09-23T10:29:24.054Z,4.05
2022-09-23T10:32:25.683Z,3.95
2022-09-23T10:34:57.018Z,4.13
2022-09-23T10:37:38.052Z,3.95
2022-09-23T10:40:45.937Z,4.35
2022-09-23T10:43:53.552Z,3.13
2022-09-23T10:46:41.522Z,2.95
2022-09-23T10:49:49.908Z,4.60
2022-09-23T10:52:36.292Z,5.38
2022-09-23T10:55:13.692Z,3.35
2022-09-23T10:57:57.698Z,2.10
2022-09-23T11:00:34.644Z,3.58
2022-09-23T11:03:27.294Z,3.40
2022-09-23T11:06:06.395Z,3.25
2022-09-23T11:08:53.443Z,2.20
2022-09-23T11:11:34.124Z,3.47
2022-09-23T11:14:22.830Z,4.05
2022-09-23T11:17:06.611Z,4.93
2022-09-23T11:19:49.641Z,4.00
2022-09-23T11:22:36.094Z,4.20
2022-09-23T11:25:28.381Z,3.13
2022-09-23T11:28:18.784Z,2.72
2022-09-23T11:30:56.000Z,2.88
2022-09-23T11:33:34.032Z,4.55
2022-09-23T11:36:06.757Z,3.42
2022-09-23T11:38:41.215Z,3.65
2022-09-23T11:41:18.659Z,2.65
2022-09-23T11:43:52.325Z,3.95
2022-09-23T11:46:31.809Z,2.75
2022-09-23T11:49:07.510Z,2.88
2022-09-23T11:51:41.483Z,3.65
2022-09-23T11:54:20.904Z,3.35
2022-09-23T11:56:53.008Z,4.55
2022-09-23T11:59:40.276Z,3.33
2022-09-23T12:02:22.191Z,5.75
2022-09-23T12:05:01.210Z,1.88
2022-09-23T12:07:39.560Z,2.50
2022-09-23T12:10:09.930Z,2.20
2022-09-23T12:12:47.684Z,2.85
2022-09-23T12:15:27.618Z,2.10
2022-09-23T12:18:22.334Z,1.73
2022-09-23T12:21:05.327Z,2.13
2022-09-23T12:23:45.993Z,3.63
2022-09-23T12:26:18.255Z,1.70
2022-09-23T12:28:49.139Z,3.10
2022-09-23T12:31:20.103Z,3.22
2022-09-23T12:33:54.642Z,2.33
2022-09-23T12:36:27.831Z,4.28
2022-09-23T12:39:01.597Z,3.88
2022-09-23T12:41:36.590Z,2.55
2022-09-23T12:44:31.566Z,2.80
2022-09-23T12:47:40.116Z,4.18
2022-09-23T12:50:45.181Z,2.10
2022-09-23T12:53:53.726Z,3.75
2022-09-23T12:56:26.440Z,2.33
2022-09-23T12:59:25.218Z,2.70
2022-09-23T13:01:54.014Z,4.27
2022-09-23T13:04:49.722Z,4.80
2022-09-23T13:07:20.249Z,1.67
2022-09-23T13:09:51.465Z,1.88
2022-09-23T13:12:25.231Z,2.58
2022-09-23T13:14:58.125Z,1.55
2022-09-23T13:17:31.124Z,2.72
2022-09-23T13:20:01.879Z,2.75
2022-09-23T13:23:16.668Z,3.25
2022-09-23T13:25:45.333Z,2.72
2022-09-23T13:28:27.238Z,2.22
2022-09-23T13:30:55.327Z,3.20
2022-09-23T13:33:38.913Z,1.88
2022-09-23T13:36:13.539Z,2.42
2022-09-23T13:38:42.153Z,4.70
2022-09-23T13:41:14.766Z,2.60
2022-09-23T13:43:46.208Z,3.78
2022-09-23T13:46:18.198Z,3.90
2022-09-23T13:48:48.369Z,2.22
2022-09-23T13:51:23.023Z,1.85
2022-09-23T13:53:55.942Z,1.98
2022-09-23T13:56:25.228Z,2.28
2022-09-23T13:58:55.849Z,1.73
2022-09-23T14:01:30.714Z,1.73
2022-09-23T14:03:59.099Z,1.63
2022-09-23T14:06:27.919Z,1.85
2022-09-23T14:08:56.515Z,1.80
2022-09-23T14:11:30.527Z,2.83
2022-09-23T14:14:07.231Z,1.90
2022-09-23T14:16:40.537Z,2.38
2022-09-23T14:19:14.183Z,2.22
2022-09-23T14:21:42.674Z,1.60
2022-09-23T14:24:16.411Z,2.28
2022-09-23T14:26:47.606Z,2.25
2022-09-23T14:29:19.945Z,4.75
2022-09-23T14:31:57.051Z,1.85
2022-09-23T14:34:42.570Z,1.85
2022-09-23T14:37:38.480Z,1.27
2022-09-23T14:40:10.825Z,3.65
2022-09-23T14:42:41.175Z,3.42
2022-09-23T14:45:19.161Z,1.40
2022-09-23T14:47:49.724Z,1.60
2022-09-23T14:50:40.574Z,1.23
2022-09-23T14:53:37.374Z,2.40
2022-09-23T14:56:20.332Z,1.67
2022-09-23T14:58:53.078Z,2.15
2022-09-23T15:01:36.200Z,2.03
2022-09-23T15:04:16.932Z,3.10
2022-09-23T15:06:50.006Z,1.50
2022-09-23T15:09:23.726Z,1.33
2022-09-23T15:11:53.948Z,2.25
2022-09-23T15:14:37.389Z,2.55
2022-09-23T15:17:16.685Z,2.88
2022-09-23T15:19:44.998Z,2.30
2022-09-23T15:22:13.328Z,1.48
2022-09-23T15:24:45.949Z,1.83
2022-09-23T15:27:30.821Z,1.00
2022-09-23T15:30:17.165Z,3.20
2022-09-23T15:32:47.390Z,2.35
2022-09-23T15:35:16.460Z,2.25
2022-09-23T15:37:44.710Z,2.33
2022-09-23T15:40:22.029Z,3.13
2022-09-23T15:42:52.280Z,3.00
2022-09-23T15:45:22.371Z,2.03
2022-09-23T15:47:52.286Z,2.25
2022-09-23T15:50:20.837Z,2.42
2022-09-23T15:52:48.761Z,1.60
2022-09-23T15:55:18.413Z,1.55
2022-09-23T15:57:46.308Z,3.95
2022-09-23T16:00:15.807Z,2.42
2022-09-23T16:02:45.433Z,1.88
2022-09-23T16:05:22.358Z,3.83
2022-09-23T16:07:52.367Z,2.38
2022-09-23T16:10:24.927Z,2.42
2022-09-23T16:12:55.295Z,4.10
2022-09-23T16:15:24.621Z,2.42
2022-09-23T16:17:52.706Z,2.38
2022-09-23T16:20:22.776Z,1.88
2022-09-23T16:22:55.284Z,2.15
2022-09-23T16:25:28.216Z,1.63
2022-09-23T16:27:57.283Z,1.63
2022-09-23T16:30:26.356Z,2.23
2022-09-23T16:32:54.255Z,2.08
2022-09-23T16:35:25.679Z,1.58
2022-09-23T16:37:53.745Z,5.80
2022-09-23T16:40:24.012Z,1.73
2022-09-23T16:42:55.032Z,1.83
2022-09-23T16:45:23.426Z,2.97
2022-09-23T16:47:52.449Z,1.40
2022-09-23T16:50:23.741Z,1.95
2022-09-23T16:52:54.827Z,2.83
2022-09-23T16:55:24.735Z,3.25
2022-09-23T17:00:37.637Z,6.25
2022-09-23T17:03:23.872Z,3.22
2022-09-23T17:05:55.527Z,2.22
2022-09-23T17:08:23.467Z,3.05
2022-09-23T17:10:58.524Z,3.38
2022-09-23T17:13:27.483Z,2.78
2022-09-23T17:15:55.757Z,4.85
2022-09-23T17:18:24.129Z,3.90
2022-09-23T17:21:01.554Z,3.38
2022-09-23T17:23:31.717Z,3.05
2022-09-23T17:26:00.333Z,5.45
2022-09-23T17:28:28.480Z,2.97
2022-09-23T17:30:59.026Z,3.92
2022-09-23T17:33:27.214Z,4.28
2022-09-23T17:35:56.759Z,5.45
2022-09-23T17:38:29.179Z,9.50
2022-09-23T17:41:01.255Z,6.65
2022-09-23T17:43:31.490Z,4.72
2022-09-23T17:46:05.270Z,6.28
2022-09-23T17:48:34.886Z,4.25
2022-09-23T17:51:04.462Z,5.53
2022-09-23T17:53:36.150Z,4.55
2022-09-23T17:56:06.269Z,3.45
2022-09-23T17:58:36.312Z,3.97
2022-09-23T18:01:05.039Z,3.65
2022-09-23T18:03:33.268Z,5.65
2022-09-23T18:06:12.946Z,3.67
2022-09-23T18:08:43.071Z,3.97
2022-09-23T18:11:19.932Z,4.43
2022-09-23T18:13:52.509Z,5.57
2022-09-23T18:16:21.809Z,6.45
2022-09-23T18:18:53.452Z,5.20
2022-09-23T18:21:21.999Z,4.43
2022-09-23T18:23:51.433Z,4.07
2022-09-23T18:26:21.407Z,4.15
2022-09-23T18:28:50.027Z,5.15
2022-09-23T18:31:18.067Z,2.90
2022-09-23T18:33:51.028Z,4.55
2022-09-23T18:36:19.499Z,4.38
2022-09-23T18:38:47.569Z,4.03
2022-09-23T18:41:17.954Z,6.03
2022-09-23T18:43:48.564Z,4.10
2022-09-23T18:46:18.384Z,4.32
2022-09-23T18:49:04.707Z,5.57
2022-09-23T18:51:34.629Z,3.50
2022-09-23T18:56:37.267Z,3.13
2022-09-23T18:59:06.381Z,4.72
2022-09-23T19:01:35.110Z,6.50
2022-09-23T19:04:03.883Z,6.22
2022-09-23T19:06:34.670Z,9.82
2022-09-23T19:09:03.040Z,8.60
2022-09-23T19:11:32.703Z,9.15
2022-09-23T19:14:01.933Z,7.78
2022-09-23T19:16:32.212Z,9.23
2022-09-23T19:19:00.714Z,5.18
2022-09-23T19:21:29.672Z,4.28
2022-09-23T19:24:00.373Z,4.22
2022-09-23T19:26:32.109Z,4.20
2022-09-23T19:29:02.522Z,4.55
2022-09-23T19:31:33.381Z,4.30
2022-09-23T19:34:04.550Z,3.95
2022-09-23T19:36:36.847Z,3.63
2022-09-23T19:39:06.744Z,4.45
2022-09-23T19:44:08.063Z,4.78
2022-09-23T19:46:37.773Z,4.53
2022-09-23T19:49:07.244Z,4.78
2022-09-23T19:51:36.685Z,2.97
2022-09-23T19:54:07.138Z,4.03
2022-09-23T19:56:35.764Z,5.53
2022-09-23T19:59:08.708Z,4.40
2022-09-23T20:01:37.251Z,5.28
2022-09-23T20:04:05.658Z,3.53
2022-09-23T20:06:35.910Z,4.63
2022-09-23T20:09:03.834Z,5.43
2022-09-23T20:11:32.488Z,4.88
2022-09-23T20:14:04.474Z,3.30
2022-09-23T20:16:35.562Z,4.25
2022-09-23T20:19:04.402Z,6.53
2022-09-23T20:21:33.487Z,7.57
2022-09-23T20:24:02.115Z,5.90
2022-09-23T20:26:47.968Z,7.00
2022-09-23T20:29:16.142Z,6.18
2022-09-23T20:31:45.456Z,4.85
2022-09-23T20:34:13.724Z,4.93
2022-09-23T20:36:42.520Z,4.43
2022-09-23T20:39:10.970Z,5.15
2022-09-23T20:41:39.629Z,5.55
2022-09-23T20:44:12.559Z,4.63
2022-09-23T20:46:44.139Z,4.28
2022-09-23T20:49:17.857Z,6.35
2022-09-23T20:51:46.274Z,3.78
2022-09-23T20:54:14.149Z,4.65
2022-09-23T20:56:42.052Z,5.30
2022-09-23T20:59:10.576Z,4.65
2022-09-23T21:01:38.590Z,4.22
2022-09-23T21:04:07.908Z,4.82
2022-09-23T21:06:38.175Z,4.55
2022-09-23T21:09:07.459Z,7.25
2022-09-23T21:11:35.316Z,6.30
2022-09-23T21:14:03.658Z,4.97
2022-09-23T21:16:32.003Z,6.68
2022-09-23T21:19:00.338Z,6.15
2022-09-23T21:21:28.553Z,5.25
2022-09-23T21:24:17.310Z,6.22
2022-09-23T21:26:47.844Z,5.57
2022-09-23T21:29:15.808Z,5.20
2022-09-23T21:31:43.836Z,6.13
2022-09-23T21:34:12.693Z,6.93
2022-09-23T21:36:42.813Z,6.28
2022-09-23T21:39:13.069Z,6.75
2022-09-23T21:41:41.175Z,6.88
2022-09-23T21:44:09.465Z,6.13
2022-09-23T21:46:38.198Z,10.05
2022-09-23T21:49:06.471Z,7.03
2022-09-23T21:51:37.752Z,6.45
2022-09-23T21:54:07.254Z,6.65
2022-09-23T21:56:38.007Z,6.95
2022-09-23T21:59:07.707Z,9.63
2022-09-23T22:01:37.405Z,9.45
2022-09-23T22:04:08.183Z,7.78
2022-09-23T22:06:38.165Z,10.23
2022-09-23T22:09:08.907Z,8.82
2022-09-23T22:11:56.880Z,6.55
2022-09-23T22:14:26.407Z,6.75
2022-09-23T22:16:57.551Z,7.68
2022-09-23T22:19:27.480Z,8.27
2022-09-23T22:21:55.903Z,8.50
2022-09-23T22:24:24.236Z,7.00
2022-09-23T22:26:53.846Z,5.80
2022-09-23T22:29:39.051Z,6.28
2022-09-23T22:32:28.763Z,7.78
2022-09-23T22:34:56.774Z,6.72
2022-09-23T22:37:27.942Z,6.25
2022-09-23T22:39:56.141Z,6.80
2022-09-23T22:42:26.232Z,6.53
2022-09-23T22:44:55.541Z,7.38
2022-09-23T22:47:24.206Z,7.18
2022-09-23T22:49:54.515Z,8.02
2022-09-23T22:52:24.475Z,6.85
2022-09-23T22:54:52.997Z,9.93
2022-09-23T22:57:21.055Z,6.93
2022-09-23T22:59:50.370Z,7.82
2022-09-23T23:02:19.721Z,8.90
2022-09-23T23:04:48.156Z,7.70
2022-09-23T23:07:21.050Z,9.45
2022-09-23T23:09:50.549Z,6.85
2022-09-23T23:12:20.137Z,7.55
2022-09-23T23:17:18.794Z,8.10
2022-09-23T23:19:46.922Z,6.05
2022-09-23T23:22:14.825Z,7.68
2022-09-23T23:24:43.058Z,9.10
2022-09-23T23:27:11.108Z,7.25
2022-09-23T23:29:39.046Z,6.53
2022-09-23T23:32:07.889Z,7.25
2022-09-23T23:34:37.241Z,7.28
2022-09-23T23:37:05.188Z,9.48
2022-09-23T23:39:34.605Z,8.13
2022-09-23T23:42:03.602Z,8.93
2022-09-23T23:44:34.403Z,9.95
2022-09-23T23:47:02.882Z,8.52
2022-09-23T23:49:30.956Z,9.18
2022-09-23T23:52:00.284Z,9.30
2022-09-23T23:54:28.227Z,9.25
2022-09-23T23:56:56.196Z,8.85
2022-09-23T23:59:24.126Z,10.63
